sensor_id;sensor_type;location;lat;lon;timestamp;pressure;altitude;pressure_sealevel;temperature;humidity
37856;BME280;23694;43.274;26.924;2023-01-30T00:01:32;99300.53;;;-0.75;97.20
37856;BME280;23694;43.274;26.924;2023-01-30T00:03:59;99309.78;;;-0.62;97.39
37856;BME280;23694;43.274;26.924;2023-01-30T00:06:25;99306.28;;;-0.59;97.31
37856;BME280;23694;43.274;26.924;2023-01-30T00:08:51;99307.97;;;-0.57;97.81
37856;BME280;23694;43.274;26.924;2023-01-30T00:11:19;99317.03;;;-0.36;95.77
37856;BME280;23694;43.274;26.924;2023-01-30T00:13:47;99309.41;;;-0.42;95.70
37856;BME280;23694;43.274;26.924;2023-01-30T00:16:13;99306.69;;;-0.35;95.52
37856;BME280;23694;43.274;26.924;2023-01-30T00:18:41;99319.97;;;-0.56;94.82
37856;BME280;23694;43.274;26.924;2023-01-30T00:21:10;99315.81;;;-0.66;95.23
37856;BME280;23694;43.274;26.924;2023-01-30T00:23:37;99309.78;;;-0.62;93.97
37856;BME280;23694;43.274;26.924;2023-01-30T00:26:04;99316.59;;;-0.59;93.60
37856;BME280;23694;43.274;26.924;2023-01-30T00:28:31;99310.53;;;-0.57;94.50
37856;BME280;23694;43.274;26.924;2023-01-30T00:30:57;99313.13;;;-0.58;94.82
37856;BME280;23694;43.274;26.924;2023-01-30T00:33:25;99315.88;;;-0.69;94.82
37856;BME280;23694;43.274;26.924;2023-01-30T00:35:52;99317.59;;;-0.70;94.25
37856;BME280;23694;43.274;26.924;2023-01-30T00:38:19;99315.06;;;-0.73;95.15
37856;BME280;23694;43.274;26.924;2023-01-30T00:40:47;99308.09;;;-0.66;95.01
37856;BME280;23694;43.274;26.924;2023-01-30T00:43:15;99305.41;;;-0.58;94.06
37856;BME280;23694;43.274;26.924;2023-01-30T00:46:02;99302.31;;;-0.79;94.58
37856;BME280;23694;43.274;26.924;2023-01-30T00:48:47;99288.75;;;-0.88;96.90
37856;BME280;23694;43.274;26.924;2023-01-30T00:51:14;99293.03;;;-0.87;97.23
37856;BME280;23694;43.274;26.924;2023-01-30T00:53:40;99280.13;;;-0.84;97.26
37856;BME280;23694;43.274;26.924;2023-01-30T00:56:06;99285.88;;;-0.70;97.37
37856;BME280;23694;43.274;26.924;2023-01-30T00:58:32;99277.28;;;-0.69;95.75
37856;BME280;23694;43.274;26.924;2023-01-30T01:00:58;99285.28;;;-0.84;96.98
37856;BME280;23694;43.274;26.924;2023-01-30T01:03:24;99281.72;;;-0.77;97.03
37856;BME280;23694;43.274;26.924;2023-01-30T01:05:50;99280.97;;;-0.84;97.58
37856;BME280;23694;43.274;26.924;2023-01-30T01:08:16;99282.59;;;-0.78;97.96
37856;BME280;23694;43.274;26.924;2023-01-30T01:10:42;99280.03;;;-0.78;98.12
37856;BME280;23694;43.274;26.924;2023-01-30T01:13:09;99270.59;;;-0.79;97.73
37856;BME280;23694;43.274;26.924;2023-01-30T01:15:35;99270.03;;;-0.97;97.70
37856;BME280;23694;43.274;26.924;2023-01-30T01:18:02;99273.59;;;-1.04;99.03
37856;BME280;23694;43.274;26.924;2023-01-30T01:20:28;99270.31;;;-1.12;100.00
37856;BME280;23694;43.274;26.924;2023-01-30T01:22:55;99261.03;;;-1.22;100.00
37856;BME280;23694;43.274;26.924;2023-01-30T01:25:23;99263.59;;;-1.20;100.00
37856;BME280;23694;43.274;26.924;2023-01-30T01:27:49;99263.47;;;-1.13;100.00
37856;BME280;23694;43.274;26.924;2023-01-30T01:30:16;99259.97;;;-1.09;100.00
37856;BME280;23694;43.274;26.924;2023-01-30T01:32:42;99249.66;;;-1.07;100.00
37856;BME280;23694;43.274;26.924;2023-01-30T01:35:09;99251.41;;;-1.09;100.00
37856;BME280;23694;43.274;26.924;2023-01-30T01:37:35;99254.94;;;-1.15;100.00
37856;BME280;23694;43.274;26.924;2023-01-30T01:40:02;99253.28;;;-1.19;100.00
37856;BME280;23694;43.274;26.924;2023-01-30T01:42:47;99248.06;;;-1.14;100.00
37856;BME280;23694;43.274;26.924;2023-01-30T01:45:21;99249.00;;;-1.18;100.00
37856;BME280;23694;43.274;26.924;2023-01-30T01:47:57;99233.50;;;-1.14;100.00
37856;BME280;23694;43.274;26.924;2023-01-30T01:50:37;99237.06;;;-1.22;100.00
37856;BME280;23694;43.274;26.924;2023-01-30T01:53:06;99233.53;;;-1.15;100.00
37856;BME280;23694;43.274;26.924;2023-01-30T01:55:33;99237.25;;;-1.36;100.00
37856;BME280;23694;43.274;26.924;2023-01-30T01:58:06;99235.78;;;-1.52;100.00
37856;BME280;23694;43.274;26.924;2023-01-30T02:00:35;99232.38;;;-1.53;100.00
37856;BME280;23694;43.274;26.924;2023-01-30T02:03:05;99237.31;;;-1.39;100.00
37856;BME280;23694;43.274;26.924;2023-01-30T02:05:34;99232.88;;;-1.31;100.00
37856;BME280;23694;43.274;26.924;2023-01-30T02:08:08;99229.25;;;-1.73;100.00
37856;BME280;23694;43.274;26.924;2023-01-30T02:13:23;99231.88;;;-1.76;100.00
37856;BME280;23694;43.274;26.924;2023-01-30T02:15:50;99225.72;;;-1.66;100.00
37856;BME280;23694;43.274;26.924;2023-01-30T02:18:17;99220.44;;;-1.55;100.00
37856;BME280;23694;43.274;26.924;2023-01-30T02:26:11;99224.16;;;-1.76;100.00
37856;BME280;23694;43.274;26.924;2023-01-30T02:29:16;99218.88;;;-1.66;100.00
37856;BME280;23694;43.274;26.924;2023-01-30T02:35:02;99224.41;;;-1.36;100.00
37856;BME280;23694;43.274;26.924;2023-01-30T02:43:43;99221.91;;;-1.41;100.00
37856;BME280;23694;43.274;26.924;2023-01-30T02:46:14;99201.53;;;-1.51;100.00
37856;BME280;23694;43.274;26.924;2023-01-30T02:49:12;99223.56;;;-1.37;100.00
37856;BME280;23694;43.274;26.924;2023-01-30T02:51:41;99233.91;;;-1.41;100.00
37856;BME280;23694;43.274;26.924;2023-01-30T02:54:13;99227.09;;;-1.44;100.00
37856;BME280;23694;43.274;26.924;2023-01-30T02:56:49;99227.13;;;-1.45;100.00
37856;BME280;23694;43.274;26.924;2023-01-30T02:59:31;99219.38;;;-1.42;100.00
37856;BME280;23694;43.274;26.924;2023-01-30T03:16:11;99208.31;;;-1.47;100.00
37856;BME280;23694;43.274;26.924;2023-01-30T03:18:44;99216.78;;;-1.41;100.00
37856;BME280;23694;43.274;26.924;2023-01-30T03:21:11;99213.41;;;-1.44;100.00
37856;BME280;23694;43.274;26.924;2023-01-30T03:23:37;99220.28;;;-1.46;100.00
37856;BME280;23694;43.274;26.924;2023-01-30T03:26:05;99216.81;;;-1.44;100.00
37856;BME280;23694;43.274;26.924;2023-01-30T03:28:33;99217.56;;;-1.37;100.00
37856;BME280;23694;43.274;26.924;2023-01-30T03:31:00;99215.84;;;-1.37;100.00
37856;BME280;23694;43.274;26.924;2023-01-30T03:33:26;99207.13;;;-1.25;100.00
37856;BME280;23694;43.274;26.924;2023-01-30T03:35:52;99212.34;;;-1.33;100.00
37856;BME280;23694;43.274;26.924;2023-01-30T03:38:18;99209.22;;;-1.50;100.00
37856;BME280;23694;43.274;26.924;2023-01-30T03:40:45;99210.19;;;-1.57;100.00
37856;BME280;23694;43.274;26.924;2023-01-30T03:43:11;99200.81;;;-1.60;100.00
37856;BME280;23694;43.274;26.924;2023-01-30T03:45:37;99203.47;;;-1.66;100.00
37856;BME280;23694;43.274;26.924;2023-01-30T03:48:03;99202.56;;;-1.63;100.00
37856;BME280;23694;43.274;26.924;2023-01-30T03:50:29;99197.50;;;-1.68;100.00
37856;BME280;23694;43.274;26.924;2023-01-30T03:52:55;99202.69;;;-1.71;100.00
37856;BME280;23694;43.274;26.924;2023-01-30T03:55:21;99193.25;;;-1.70;100.00
37856;BME280;23694;43.274;26.924;2023-01-30T03:57:47;99190.84;;;-1.81;100.00
37856;BME280;23694;43.274;26.924;2023-01-30T04:00:13;99189.88;;;-1.74;100.00
37856;BME280;23694;43.274;26.924;2023-01-30T04:02:40;99190.09;;;-1.87;100.00
37856;BME280;23694;43.274;26.924;2023-01-30T04:05:06;99187.41;;;-1.78;100.00
37856;BME280;23694;43.274;26.924;2023-01-30T04:07:32;99182.38;;;-1.86;100.00
37856;BME280;23694;43.274;26.924;2023-01-30T04:09:58;99187.41;;;-1.80;100.00
37856;BME280;23694;43.274;26.924;2023-01-30T04:12:24;99191.66;;;-1.77;100.00
37856;BME280;23694;43.274;26.924;2023-01-30T04:14:50;99182.28;;;-1.80;100.00
37856;BME280;23694;43.274;26.924;2023-01-30T04:17:16;99185.66;;;-1.78;100.00
37856;BME280;23694;43.274;26.924;2023-01-30T04:19:42;99178.84;;;-1.79;100.00
37856;BME280;23694;43.274;26.924;2023-01-30T04:22:08;99185.56;;;-1.72;100.00
37856;BME280;23694;43.274;26.924;2023-01-30T04:24:34;99179.66;;;-1.75;100.00
37856;BME280;23694;43.274;26.924;2023-01-30T04:27:00;99183.91;;;-1.74;100.00
37856;BME280;23694;43.274;26.924;2023-01-30T04:29:26;99182.13;;;-1.71;100.00
37856;BME280;23694;43.274;26.924;2023-01-30T04:31:52;99188.06;;;-1.67;100.00
37856;BME280;23694;43.274;26.924;2023-01-30T04:34:18;99181.97;;;-1.60;100.00
37856;BME280;23694;43.274;26.924;2023-01-30T04:36:45;99178.47;;;-1.56;100.00
37856;BME280;23694;43.274;26.924;2023-01-30T04:39:11;99178.69;;;-1.70;100.00
37856;BME280;23694;43.274;26.924;2023-01-30T04:41:37;99183.03;;;-1.73;100.00
37856;BME280;23694;43.274;26.924;2023-01-30T04:44:03;99179.69;;;-1.78;100.00
37856;BME280;23694;43.274;26.924;2023-01-30T04:46:29;99184.63;;;-1.66;100.00
37856;BME280;23694;43.274;26.924;2023-01-30T04:48:55;99184.72;;;-1.72;100.00
37856;BME280;23694;43.274;26.924;2023-01-30T04:51:21;99175.38;;;-1.76;100.00
37856;BME280;23694;43.274;26.924;2023-01-30T04:53:47;99188.47;;;-1.93;100.00
37856;BME280;23694;43.274;26.924;2023-01-30T04:56:13;99185.78;;;-1.85;100.00
37856;BME280;23694;43.274;26.924;2023-01-30T04:58:39;99187.59;;;-1.92;100.00
37856;BME280;23694;43.274;26.924;2023-01-30T05:01:33;99182.56;;;-2.01;100.00
37856;BME280;23694;43.274;26.924;2023-01-30T05:04:00;99189.41;;;-2.00;100.00
37856;BME280;23694;43.274;26.924;2023-01-30T05:06:26;99181.94;;;-2.18;100.00
37856;BME280;23694;43.274;26.924;2023-01-30T05:08:54;99184.72;;;-2.34;100.00
37856;BME280;23694;43.274;26.924;2023-01-30T05:11:22;99181.88;;;-2.14;100.00
37856;BME280;23694;43.274;26.924;2023-01-30T05:13:49;99191.13;;;-2.02;100.00
37856;BME280;23694;43.274;26.924;2023-01-30T05:16:16;99186.75;;;-1.93;100.00
37856;BME280;23694;43.274;26.924;2023-01-30T05:18:43;99188.06;;;-2.27;100.00
37856;BME280;23694;43.274;26.924;2023-01-30T05:21:12;99188.53;;;-1.99;100.00
37856;BME280;23694;43.274;26.924;2023-01-30T05:23:38;99192.00;;;-2.03;100.00
37856;BME280;23694;43.274;26.924;2023-01-30T05:26:05;99195.38;;;-2.00;100.00
37856;BME280;23694;43.274;26.924;2023-01-30T05:28:33;99195.22;;;-1.86;100.00
37856;BME280;23694;43.274;26.924;2023-01-30T05:31:11;99197.63;;;-1.77;100.00
37856;BME280;23694;43.274;26.924;2023-01-30T05:33:39;99199.09;;;-1.61;100.00
37856;BME280;23694;43.274;26.924;2023-01-30T05:36:06;99191.44;;;-1.64;100.00
37856;BME280;23694;43.274;26.924;2023-01-30T05:38:32;99186.16;;;-1.54;100.00
37856;BME280;23694;43.274;26.924;2023-01-30T05:43:25;99184.28;;;-1.45;100.00
37856;BME280;23694;43.274;26.924;2023-01-30T05:45:52;99198.69;;;-1.35;100.00
37856;BME280;23694;43.274;26.924;2023-01-30T05:48:18;99198.16;;;-1.55;100.00
37856;BME280;23694;43.274;26.924;2023-01-30T05:50:44;99196.41;;;-1.53;100.00
37856;BME280;23694;43.274;26.924;2023-01-30T05:53:11;99192.81;;;-1.41;100.00
37856;BME280;23694;43.274;26.924;2023-01-30T05:55:37;99195.41;;;-1.44;100.00
37856;BME280;23694;43.274;26.924;2023-01-30T05:58:03;99192.06;;;-1.48;100.00
37856;BME280;23694;43.274;26.924;2023-01-30T06:00:29;99192.63;;;-1.31;100.00
37856;BME280;23694;43.274;26.924;2023-01-30T06:02:55;99190.78;;;-1.21;100.00
37856;BME280;23694;43.274;26.924;2023-01-30T06:05:21;99196.03;;;-1.27;100.00
37856;BME280;23694;43.274;26.924;2023-01-30T06:07:47;99195.78;;;-1.13;100.00
37856;BME280;23694;43.274;26.924;2023-01-30T06:10:13;99187.00;;;-1.02;100.00
37856;BME280;23694;43.274;26.924;2023-01-30T06:12:39;99188.47;;;-1.38;100.00
37856;BME280;23694;43.274;26.924;2023-01-30T06:15:06;99182.22;;;-1.21;100.00
37856;BME280;23694;43.274;26.924;2023-01-30T06:17:32;99186.88;;;-1.46;100.00
37856;BME280;23694;43.274;26.924;2023-01-30T06:19:58;99185.00;;;-1.37;100.00
37856;BME280;23694;43.274;26.924;2023-01-30T06:22:24;99186.63;;;-1.28;100.00
37856;BME280;23694;43.274;26.924;2023-01-30T06:24:50;99185.78;;;-1.32;100.00
37856;BME280;23694;43.274;26.924;2023-01-30T06:27:16;99193.25;;;-1.16;100.00
37856;BME280;23694;43.274;26.924;2023-01-30T06:29:42;99195.63;;;-1.04;100.00
37856;BME280;23694;43.274;26.924;2023-01-30T06:32:08;99194.78;;;-1.05;100.00
37856;BME280;23694;43.274;26.924;2023-01-30T06:34:35;99189.06;;;-1.20;100.00
37856;BME280;23694;43.274;26.924;2023-01-30T06:37:01;99183.75;;;-1.11;100.00
37856;BME280;23694;43.274;26.924;2023-01-30T06:39:27;99183.72;;;-1.10;100.00
37856;BME280;23694;43.274;26.924;2023-01-30T06:41:53;99187.19;;;-1.12;100.00
37856;BME280;23694;43.274;26.924;2023-01-30T06:44:19;99183.63;;;-1.04;100.00
37856;BME280;23694;43.274;26.924;2023-01-30T06:46:45;99181.09;;;-1.07;100.00
37856;BME280;23694;43.274;26.924;2023-01-30T06:49:11;99185.88;;;-1.36;100.00
37856;BME280;23694;43.274;26.924;2023-01-30T06:51:37;99185.88;;;-1.38;100.00
37856;BME280;23694;43.274;26.924;2023-01-30T06:54:03;99185.38;;;-1.60;100.00
37856;BME280;23694;43.274;26.924;2023-01-30T06:56:29;99181.31;;;-1.73;100.00
37856;BME280;23694;43.274;26.924;2023-01-30T06:58:56;99177.22;;;-1.84;100.00
37856;BME280;23694;43.274;26.924;2023-01-30T07:01:22;99182.41;;;-1.87;100.00
37856;BME280;23694;43.274;26.924;2023-01-30T07:03:48;99174.81;;;-1.98;100.00
37856;BME280;23694;43.274;26.924;2023-01-30T07:06:14;99176.28;;;-1.79;100.00
37856;BME280;23694;43.274;26.924;2023-01-30T07:08:40;99176.22;;;-1.76;100.00
37856;BME280;23694;43.274;26.924;2023-01-30T07:11:06;99181.72;;;-2.02;100.00
37856;BME280;23694;43.274;26.924;2023-01-30T07:13:32;99178.47;;;-2.14;100.00
37856;BME280;23694;43.274;26.924;2023-01-30T07:15:58;99183.41;;;-2.01;100.00
37856;BME280;23694;43.274;26.924;2023-01-30T07:18:24;99175.44;;;-1.79;100.00
37856;BME280;23694;43.274;26.924;2023-01-30T07:20:50;99184.59;;;-1.63;100.00
37856;BME280;23694;43.274;26.924;2023-01-30T07:23:16;99179.66;;;-1.75;100.00
37856;BME280;23694;43.274;26.924;2023-01-30T07:25:42;99175.63;;;-1.93;100.00
37856;BME280;23694;43.274;26.924;2023-01-30T07:28:09;99176.47;;;-1.91;100.00
37856;BME280;23694;43.274;26.924;2023-01-30T07:30:35;99178.22;;;-1.95;100.00
37856;BME280;23694;43.274;26.924;2023-01-30T07:33:03;99173.03;;;-1.90;100.00
37856;BME280;23694;43.274;26.924;2023-01-30T07:35:32;99178.88;;;-1.80;100.00
37856;BME280;23694;43.274;26.924;2023-01-30T07:37:58;99174.22;;;-1.57;100.00
37856;BME280;23694;43.274;26.924;2023-01-30T07:40:25;99174.63;;;-1.31;100.00
37856;BME280;23694;43.274;26.924;2023-01-30T07:42:59;99171.06;;;-1.20;100.00
37856;BME280;23694;43.274;26.924;2023-01-30T07:45:34;99166.59;;;-1.11;100.00
37856;BME280;23694;43.274;26.924;2023-01-30T07:48:00;99167.19;;;-0.97;100.00
37856;BME280;23694;43.274;26.924;2023-01-30T07:50:26;99156.72;;;-0.86;100.00
37856;BME280;23694;43.274;26.924;2023-01-30T07:52:52;99156.16;;;-1.02;100.00
37856;BME280;23694;43.274;26.924;2023-01-30T07:55:19;99151.38;;;-0.77;100.00
37856;BME280;23694;43.274;26.924;2023-01-30T07:57:45;99163.19;;;-0.65;100.00
37856;BME280;23694;43.274;26.924;2023-01-30T08:00:13;99158.84;;;-0.61;100.00
37856;BME280;23694;43.274;26.924;2023-01-30T08:02:40;99154.56;;;-0.62;100.00
37856;BME280;23694;43.274;26.924;2023-01-30T08:05:06;99156.41;;;-0.71;100.00
37856;BME280;23694;43.274;26.924;2023-01-30T08:07:32;99152.25;;;-0.76;100.00
37856;BME280;23694;43.274;26.924;2023-01-30T08:09:58;99148.09;;;-0.83;100.00
37856;BME280;23694;43.274;26.924;2023-01-30T08:12:24;99147.00;;;-0.72;100.00
37856;BME280;23694;43.274;26.924;2023-01-30T08:14:51;99145.88;;;-1.02;100.00
37856;BME280;23694;43.274;26.924;2023-01-30T08:17:17;99146.97;;;-0.70;100.00
37856;BME280;23694;43.274;26.924;2023-01-30T08:19:43;99145.78;;;-0.52;100.00
37856;BME280;23694;43.274;26.924;2023-01-30T08:22:09;99145.63;;;-0.45;100.00
37856;BME280;23694;43.274;26.924;2023-01-30T08:24:35;99142.88;;;-0.37;100.00
37856;BME280;23694;43.274;26.924;2023-01-30T08:27:01;99133.28;;;-0.29;100.00
37856;BME280;23694;43.274;26.924;2023-01-30T08:29:28;99144.16;;;-0.16;99.50
37856;BME280;23694;43.274;26.924;2023-01-30T08:31:57;99133.03;;;-0.18;99.13
37856;BME280;23694;43.274;26.924;2023-01-30T08:34:24;99137.44;;;-0.23;99.04
37856;BME280;23694;43.274;26.924;2023-01-30T08:36:50;99138.66;;;-0.40;99.25
37856;BME280;23694;43.274;26.924;2023-01-30T08:39:16;99128.16;;;-0.30;99.46
37856;BME280;23694;43.274;26.924;2023-01-30T08:41:43;99126.56;;;-0.36;99.43
37856;BME280;23694;43.274;26.924;2023-01-30T08:44:09;99123.31;;;-0.44;99.82
37856;BME280;23694;43.274;26.924;2023-01-30T08:46:37;99122.81;;;-0.21;98.86
37856;BME280;23694;43.274;26.924;2023-01-30T08:49:04;99119.38;;;-0.22;99.07
37856;BME280;23694;43.274;26.924;2023-01-30T08:51:31;99115.66;;;-0.09;98.51
37856;BME280;23694;43.274;26.924;2023-01-30T08:53:57;99115.47;;;0.01;99.10
37856;BME280;23694;43.274;26.924;2023-01-30T08:56:23;99120.63;;;0.01;97.33
37856;BME280;23694;43.274;26.924;2023-01-30T08:58:50;99113.38;;;-0.21;98.57
37856;BME280;23694;43.274;26.924;2023-01-30T09:01:16;99109.69;;;-0.11;98.31
37856;BME280;23694;43.274;26.924;2023-01-30T09:03:42;99109.56;;;-0.05;98.96
37856;BME280;23694;43.274;26.924;2023-01-30T09:06:08;99106.41;;;-0.17;97.93
37856;BME280;23694;43.274;26.924;2023-01-30T09:08:34;99100.38;;;-0.16;99.45
37856;BME280;23694;43.274;26.924;2023-01-30T09:11:02;99098.44;;;-0.07;99.34
37856;BME280;23694;43.274;26.924;2023-01-30T09:13:30;99093.84;;;0.08;99.13
37856;BME280;23694;43.274;26.924;2023-01-30T09:15:56;99089.50;;;0.10;97.79
37856;BME280;23694;43.274;26.924;2023-01-30T09:18:23;99088.63;;;0.11;98.22
37856;BME280;23694;43.274;26.924;2023-01-30T09:20:49;99083.28;;;0.18;97.67
37856;BME280;23694;43.274;26.924;2023-01-30T09:23:16;99071.28;;;-0.20;99.34
37856;BME280;23694;43.274;26.924;2023-01-30T09:25:45;99070.53;;;-0.62;100.00
37856;BME280;23694;43.274;26.924;2023-01-30T09:28:12;99068.75;;;-0.21;100.00
37856;BME280;23694;43.274;26.924;2023-01-30T09:30:38;99070.00;;;-0.02;100.00
37856;BME280;23694;43.274;26.924;2023-01-30T09:33:04;99057.09;;;0.35;100.00
37856;BME280;23694;43.274;26.924;2023-01-30T09:35:30;99065.00;;;0.29;99.21
37856;BME280;23694;43.274;26.924;2023-01-30T09:37:56;99051.97;;;0.35;98.34
37856;BME280;23694;43.274;26.924;2023-01-30T09:40:27;99053.34;;;0.48;98.05
37856;BME280;23694;43.274;26.924;2023-01-30T09:48:21;99049.72;;;0.55;96.53
37856;BME280;23694;43.274;26.924;2023-01-30T09:53:56;99046.31;;;0.21;99.23
37856;BME280;23694;43.274;26.924;2023-01-30T09:56:25;99035.84;;;0.27;100.00
37856;BME280;23694;43.274;26.924;2023-01-30T09:58:55;99022.03;;;0.62;99.71
37856;BME280;23694;43.274;26.924;2023-01-30T10:01:44;99017.34;;;1.07;98.28
37856;BME280;23694;43.274;26.924;2023-01-30T10:07:14;99010.25;;;1.45;91.50
37856;BME280;23694;43.274;26.924;2023-01-30T10:09:53;99007.03;;;1.65;89.96
37856;BME280;23694;43.274;26.924;2023-01-30T10:21:10;98988.19;;;2.40;84.46
37856;BME280;23694;43.274;26.924;2023-01-30T10:23:49;98981.84;;;2.49;82.32
37856;BME280;23694;43.274;26.924;2023-01-30T10:26:19;98980.84;;;2.53;83.00
37856;BME280;23694;43.274;26.924;2023-01-30T10:29:00;98973.25;;;2.73;81.45
37856;BME280;23694;43.274;26.924;2023-01-30T10:31:48;98968.19;;;2.45;82.69
37856;BME280;23694;43.274;26.924;2023-01-30T10:34:30;98965.50;;;2.23;82.84
37856;BME280;23694;43.274;26.924;2023-01-30T10:37:04;98955.16;;;2.23;83.23
37856;BME280;23694;43.274;26.924;2023-01-30T10:39:44;98959.34;;;2.28;83.21
37856;BME280;23694;43.274;26.924;2023-01-30T10:42:15;98952.59;;;2.23;82.79
37856;BME280;23694;43.274;26.924;2023-01-30T10:44:47;98950.56;;;2.32;82.40
37856;BME280;23694;43.274;26.924;2023-01-30T10:49:53;98951.31;;;2.10;82.99
37856;BME280;23694;43.274;26.924;2023-01-30T10:52:29;98945.69;;;1.99;83.43
37856;BME280;23694;43.274;26.924;2023-01-30T10:55:24;98942.03;;;1.78;84.34
37856;BME280;23694;43.274;26.924;2023-01-30T11:00:42;98927.59;;;1.99;84.52
37856;BME280;23694;43.274;26.924;2023-01-30T11:05:45;98914.16;;;1.88;85.20
37856;BME280;23694;43.274;26.924;2023-01-30T11:08:28;98908.50;;;1.77;85.92
37856;BME280;23694;43.274;26.924;2023-01-30T11:10:56;98910.50;;;1.69;85.05
37856;BME280;23694;43.274;26.924;2023-01-30T11:13:32;98903.06;;;1.59;85.35
37856;BME280;23694;43.274;26.924;2023-01-30T11:16:03;98899.84;;;1.53;86.12
37856;BME280;23694;43.274;26.924;2023-01-30T11:18:30;98889.38;;;1.57;86.93
37856;BME280;23694;43.274;26.924;2023-01-30T11:21:01;98890.81;;;1.66;86.83
37856;BME280;23694;43.274;26.924;2023-01-30T11:23:42;98883.56;;;1.51;86.56
37856;BME280;23694;43.274;26.924;2023-01-30T11:26:20;98875.81;;;1.51;87.50
37856;BME280;23694;43.274;26.924;2023-01-30T11:28:47;98877.16;;;1.36;87.83
37856;BME280;23694;43.274;26.924;2023-01-30T11:31:33;98867.69;;;1.37;88.22
37856;BME280;23694;43.274;26.924;2023-01-30T11:34:10;98864.75;;;1.47;89.11
37856;BME280;23694;43.274;26.924;2023-01-30T11:36:37;98860.97;;;1.57;88.07
37856;BME280;23694;43.274;26.924;2023-01-30T11:39:20;98856.13;;;1.48;88.22
37856;BME280;23694;43.274;26.924;2023-01-30T11:44:31;98837.16;;;1.49;88.08
37856;BME280;23694;43.274;26.924;2023-01-30T11:49:58;98818.66;;;1.37;88.83
37856;BME280;23694;43.274;26.924;2023-01-30T11:52:34;98816.03;;;1.38;88.87
37856;BME280;23694;43.274;26.924;2023-01-30T11:55:05;98816.06;;;1.37;89.27
37856;BME280;23694;43.274;26.924;2023-01-30T11:57:46;98801.28;;;1.42;88.76
37856;BME280;23694;43.274;26.924;2023-01-30T12:00:24;98796.50;;;1.56;88.32
37856;BME280;23694;43.274;26.924;2023-01-30T12:02:52;98800.97;;;1.51;87.71
37856;BME280;23694;43.274;26.924;2023-01-30T12:05:30;98800.69;;;1.58;88.13
37856;BME280;23694;43.274;26.924;2023-01-30T12:10:58;98775.63;;;1.62;86.95
37856;BME280;23694;43.274;26.924;2023-01-30T12:13:39;98785.00;;;1.65;86.40
37856;BME280;23694;43.274;26.924;2023-01-30T12:16:23;98783.88;;;1.72;86.02
37856;BME280;23694;43.274;26.924;2023-01-30T12:19:05;98786.41;;;1.73;86.44
37856;BME280;23694;43.274;26.924;2023-01-30T12:24:27;98774.25;;;1.77;86.26
37856;BME280;23694;43.274;26.924;2023-01-30T12:27:03;98763.00;;;1.78;86.32
37856;BME280;23694;43.274;26.924;2023-01-30T12:29:35;98768.22;;;1.76;86.68
37856;BME280;23694;43.274;26.924;2023-01-30T12:32:10;98756.28;;;1.74;86.46
37856;BME280;23694;43.274;26.924;2023-01-30T12:34:37;98744.38;;;1.70;86.87
37856;BME280;23694;43.274;26.924;2023-01-30T12:53:28;98736.47;;;1.74;87.53
37856;BME280;23694;43.274;26.924;2023-01-30T12:56:00;98724.94;;;1.83;87.10
37856;BME280;23694;43.274;26.924;2023-01-30T12:58:35;98734.44;;;1.82;87.01
37856;BME280;23694;43.274;26.924;2023-01-30T13:01:32;98727.25;;;1.67;88.37
37856;BME280;23694;43.274;26.924;2023-01-30T13:10:07;98732.94;;;1.77;87.97
37856;BME280;23694;43.274;26.924;2023-01-30T13:17:59;98717.16;;;1.36;91.05
37856;BME280;23694;43.274;26.924;2023-01-30T13:24:00;98713.66;;;1.39;91.01
37856;BME280;23694;43.274;26.924;2023-01-30T13:26:32;98707.75;;;1.35;91.03
37856;BME280;23694;43.274;26.924;2023-01-30T13:29:34;98710.28;;;1.37;91.32
37856;BME280;23694;43.274;26.924;2023-01-30T13:32:05;98712.16;;;1.32;91.36
37856;BME280;23694;43.274;26.924;2023-01-30T13:34:46;98710.66;;;1.24;92.20
37856;BME280;23694;43.274;26.924;2023-01-30T13:37:16;98704.66;;;1.24;92.11
37856;BME280;23694;43.274;26.924;2023-01-30T13:39:47;98711.34;;;1.30;92.14
37856;BME280;23694;43.274;26.924;2023-01-30T13:42:29;98701.13;;;1.26;92.98
37856;BME280;23694;43.274;26.924;2023-01-30T13:44:58;98691.66;;;1.27;92.38
37856;BME280;23694;43.274;26.924;2023-01-30T13:47:43;98700.47;;;1.46;91.65
37856;BME280;23694;43.274;26.924;2023-01-30T13:53:27;98691.88;;;1.21;91.40
37856;BME280;23694;43.274;26.924;2023-01-30T14:07:32;98694.41;;;0.98;91.42
37856;BME280;23694;43.274;26.924;2023-01-30T14:10:18;98682.88;;;0.83;91.82
37856;BME280;23694;43.274;26.924;2023-01-30T14:12:49;98686.66;;;0.98;91.58
37856;BME280;23694;43.274;26.924;2023-01-30T14:15:19;98693.03;;;1.12;91.21
37856;BME280;23694;43.274;26.924;2023-01-30T14:18:12;98681.41;;;1.01;91.04
37856;BME280;23694;43.274;26.924;2023-01-30T14:20:46;98682.13;;;1.04;91.37
37856;BME280;23694;43.274;26.924;2023-01-30T14:23:53;98682.44;;;1.20;91.03
37856;BME280;23694;43.274;26.924;2023-01-30T14:26:59;98684.75;;;1.27;90.03
37856;BME280;23694;43.274;26.924;2023-01-30T14:39:55;98671.88;;;1.03;89.92
37856;BME280;23694;43.274;26.924;2023-01-30T14:42:27;98671.78;;;1.06;90.17
37856;BME280;23694;43.274;26.924;2023-01-30T14:45:01;98671.63;;;1.10;90.06
37856;BME280;23694;43.274;26.924;2023-01-30T14:47:29;98660.72;;;1.02;90.43
37856;BME280;23694;43.274;26.924;2023-01-30T14:49:57;98658.72;;;1.10;89.31
37856;BME280;23694;43.274;26.924;2023-01-30T14:52:37;98661.25;;;1.12;89.72
37856;BME280;23694;43.274;26.924;2023-01-30T14:55:06;98660.50;;;1.08;89.91
37856;BME280;23694;43.274;26.924;2023-01-30T14:57:52;98660.13;;;1.19;89.85
37856;BME280;23694;43.274;26.924;2023-01-30T15:00:19;98653.03;;;1.01;91.18
37856;BME280;23694;43.274;26.924;2023-01-30T15:02:54;98654.06;;;1.20;91.38
37856;BME280;23694;43.274;26.924;2023-01-30T15:05:33;98665.03;;;1.02;91.33
37856;BME280;23694;43.274;26.924;2023-01-30T15:11:00;98661.88;;;0.93;90.79
37856;BME280;23694;43.274;26.924;2023-01-30T15:13:38;98649.09;;;0.90;90.53
37856;BME280;23694;43.274;26.924;2023-01-30T15:16:12;98659.34;;;0.92;90.73